Amagasaki, Japan
Current Conditions -  °F | °C
As of 8:00 PM on Friday 21 Nov 2014 (Local Time) from RJOO Reporting Station
Clear Clear  
Wind Chill: 52°   Ceiling: Unl
Heat Index: 52°   Visibility: 6mi
Dew Point: 37°   Wind: 6mph
Humidity: 58%   Direction: 320°NW
Pressure: 30.27"   Gusts: NA
Location:  34.71°N, 135.41°E
Report Text: RJOO 211100Z 32005KT CAVOK 11/03 Q1025
Loading
Personal Weather Stations






























Interactive Weather Map New forecast layout! Learn more

10-Day Weather Forecast

Advertisements
Track Severe Weather on mobile